createdAt,value
2023-03-30T00:00:13.135Z,93083.00
2023-03-30T00:01:13.145Z,93081.00
2023-03-30T00:02:13.160Z,93081.00
2023-03-30T00:03:13.316Z,93081.00
2023-03-30T00:04:13.336Z,93077.00
2023-03-30T00:05:13.354Z,93075.00
2023-03-30T00:06:13.217Z,93077.00
2023-03-30T00:07:13.215Z,93077.00
2023-03-30T00:08:13.226Z,93081.00
2023-03-30T00:09:13.237Z,93081.00
2023-03-30T00:10:15.076Z,93087.00
2023-03-30T00:11:13.337Z,93087.00
2023-03-30T00:12:13.290Z,93087.00
2023-03-30T00:13:13.311Z,93087.00
2023-03-30T00:14:13.326Z,93089.00
2023-03-30T00:15:13.344Z,93089.00
2023-03-30T00:16:13.382Z,93089.00
2023-03-30T00:17:13.373Z,93089.00
2023-03-30T00:18:13.389Z,93091.00
2023-03-30T00:19:13.646Z,93091.00
2023-03-30T00:20:13.431Z,93091.00
2023-03-30T00:21:13.427Z,93091.00
2023-03-30T00:22:13.451Z,93097.00
2023-03-30T00:23:13.471Z,93107.00
2023-03-30T00:24:13.481Z,93109.00
2023-03-30T00:25:13.511Z,93107.00
2023-03-30T00:26:13.523Z,93107.00
2023-03-30T00:27:13.547Z,93109.00
2023-03-30T00:28:13.576Z,93107.00
2023-03-30T00:29:13.579Z,93107.00
2023-03-30T00:30:13.600Z,93107.00
2023-03-30T00:31:13.619Z,93109.00
2023-03-30T00:32:13.670Z,93107.00
2023-03-30T00:33:13.657Z,93097.00
2023-03-30T00:34:13.679Z,93091.00
2023-03-30T00:35:13.708Z,93087.00
2023-03-30T00:36:13.893Z,93085.00
2023-03-30T00:37:13.742Z,93079.00
2023-03-30T00:38:13.750Z,93077.00
2023-03-30T00:39:13.777Z,93075.00
2023-03-30T00:40:13.830Z,93079.00
2023-03-30T00:41:13.855Z,93075.00
2023-03-30T00:42:13.841Z,93074.00
2023-03-30T00:43:13.868Z,93077.00
2023-03-30T00:44:13.934Z,93074.00
2023-03-30T00:45:13.900Z,93074.00
2023-03-30T00:46:13.948Z,93072.00
2023-03-30T00:47:13.946Z,93074.00
2023-03-30T00:48:13.960Z,93068.00
2023-03-30T00:49:13.994Z,93066.00
2023-03-30T00:50:14.022Z,93070.00
2023-03-30T00:51:14.034Z,93064.00
2023-03-30T00:52:14.046Z,93058.00
2023-03-30T00:53:14.070Z,93062.00
2023-03-30T00:54:14.105Z,93062.00
2023-03-30T00:55:14.159Z,93056.00
2023-03-30T00:56:14.137Z,93062.00
2023-03-30T00:57:14.201Z,93056.00
2023-03-30T00:58:14.150Z,93056.00
2023-03-30T00:59:14.166Z,93058.00
2023-03-30T01:00:14.174Z,93060.00
2023-03-30T01:01:14.200Z,93054.00
2023-03-30T01:02:14.282Z,93048.00
2023-03-30T01:03:14.273Z,93050.00
2023-03-30T01:04:14.214Z,93052.00
2023-03-30T01:05:14.229Z,93048.00
2023-03-30T01:06:14.238Z,93052.00
2023-03-30T01:07:14.268Z,93040.00
2023-03-30T01:08:14.289Z,93034.00
2023-03-30T01:09:14.304Z,93036.00
2023-03-30T01:10:14.311Z,93034.00
2023-03-30T01:11:14.308Z,93036.00
2023-03-30T01:12:14.326Z,93036.00
2023-03-30T01:13:14.354Z,93036.00
2023-03-30T01:14:14.373Z,93038.00
2023-03-30T01:15:14.395Z,93038.00
2023-03-30T01:16:14.451Z,93036.00
2023-03-30T01:17:14.413Z,93028.00
2023-03-30T01:18:14.434Z,93027.00
2023-03-30T01:19:14.447Z,93025.00
2023-03-30T01:20:14.444Z,93025.00
2023-03-30T01:21:14.445Z,93015.00
2023-03-30T01:22:14.466Z,93015.00
2023-03-30T01:23:14.474Z,93013.00
2023-03-30T01:24:14.518Z,93015.00
2023-03-30T01:25:14.506Z,93011.00
2023-03-30T01:26:14.523Z,93007.00
2023-03-30T01:27:14.548Z,93007.00
2023-03-30T01:28:14.568Z,93003.00
2023-03-30T01:29:14.577Z,93001.00
2023-03-30T01:30:14.613Z,92999.00
2023-03-30T01:31:14.673Z,92997.00
2023-03-30T01:32:14.627Z,92991.00
2023-03-30T01:33:14.642Z,92993.00
2023-03-30T01:34:14.663Z,92997.00
2023-03-30T01:35:14.729Z,93001.00
2023-03-30T01:36:14.754Z,93003.00
2023-03-30T01:37:14.732Z,92999.00
2023-03-30T01:38:14.759Z,92995.00
2023-03-30T01:39:14.785Z,93003.00
2023-03-30T01:40:14.801Z,93001.00
2023-03-30T01:41:14.802Z,92997.00
2023-03-30T01:42:14.812Z,92995.00
2023-03-30T01:43:14.836Z,92997.00
2023-03-30T01:44:14.844Z,92997.00
2023-03-30T01:45:14.864Z,93001.00
2023-03-30T01:46:14.894Z,92997.00
2023-03-30T01:47:14.898Z,92985.00
2023-03-30T01:48:14.910Z,92999.00
2023-03-30T01:49:14.941Z,92991.00
2023-03-30T01:50:14.973Z,92985.00
2023-03-30T01:51:14.972Z,92985.00
2023-03-30T01:52:14.971Z,92983.00
2023-03-30T01:53:15.001Z,92985.00
2023-03-30T01:54:15.003Z,92983.00
2023-03-30T01:55:15.022Z,92983.00
2023-03-30T01:56:15.048Z,92981.00
2023-03-30T01:57:15.107Z,92977.00
2023-03-30T01:58:15.090Z,92977.00
2023-03-30T01:59:15.114Z,92979.00
2023-03-30T02:00:15.169Z,92972.00
2023-03-30T02:01:15.225Z,92972.00
2023-03-30T02:02:15.227Z,92970.00
2023-03-30T02:03:15.273Z,92966.00
2023-03-30T02:04:15.217Z,92964.00
2023-03-30T02:05:15.252Z,92964.00
2023-03-30T02:06:15.263Z,92970.00
2023-03-30T02:07:15.276Z,92968.00
2023-03-30T02:08:15.301Z,92962.00
2023-03-30T02:09:15.338Z,92960.00
2023-03-30T02:10:15.349Z,92962.00
2023-03-30T02:11:15.358Z,92960.00
2023-03-30T02:12:15.383Z,92962.00
2023-03-30T02:13:15.397Z,92958.00
2023-03-30T02:14:15.403Z,92960.00
2023-03-30T02:15:15.440Z,92956.00
2023-03-30T02:16:15.529Z,92960.00
2023-03-30T02:17:15.439Z,92960.00
2023-03-30T02:18:15.466Z,92960.00
2023-03-30T02:19:15.477Z,92960.00
2023-03-30T02:20:15.487Z,92962.00
2023-03-30T02:21:15.495Z,92960.00
2023-03-30T02:22:15.548Z,92960.00
2023-03-30T02:23:15.543Z,92960.00
2023-03-30T02:24:15.553Z,92962.00
2023-03-30T02:25:15.574Z,92960.00
2023-03-30T02:26:15.596Z,92960.00
2023-03-30T02:27:15.584Z,92958.00
2023-03-30T02:28:15.590Z,92954.00
2023-03-30T02:29:15.613Z,92952.00
2023-03-30T02:30:15.631Z,92950.00
2023-03-30T02:31:15.721Z,92946.00
2023-03-30T02:32:15.664Z,92946.00
2023-03-30T02:33:15.765Z,92942.00
2023-03-30T02:34:15.702Z,92940.00
2023-03-30T02:35:15.721Z,92942.00
2023-03-30T02:36:15.789Z,92940.00
2023-03-30T02:37:15.754Z,92942.00
2023-03-30T02:38:15.760Z,92944.00
2023-03-30T02:39:15.793Z,92942.00
2023-03-30T02:40:15.810Z,92940.00
2023-03-30T02:41:15.838Z,92940.00
2023-03-30T02:42:15.829Z,92940.00
2023-03-30T02:43:15.843Z,92936.00
2023-03-30T02:44:15.857Z,92936.00
2023-03-30T02:45:15.883Z,92934.00
2023-03-30T02:46:15.920Z,92936.00
2023-03-30T02:47:15.908Z,92938.00
2023-03-30T02:48:15.915Z,92932.00
2023-03-30T02:49:15.942Z,92932.00
2023-03-30T02:50:15.956Z,92932.00
2023-03-30T02:51:15.973Z,92930.00
2023-03-30T02:52:15.990Z,92926.00
2023-03-30T02:53:16.002Z,92928.00
2023-03-30T02:54:16.048Z,92923.00
2023-03-30T02:55:16.059Z,92923.00
2023-03-30T02:56:16.063Z,92921.00
2023-03-30T02:57:16.175Z,92919.00
2023-03-30T02:58:16.122Z,92917.00
2023-03-30T02:59:16.134Z,92911.00
2023-03-30T03:00:16.152Z,92911.00
2023-03-30T03:01:16.248Z,92911.00
2023-03-30T03:02:16.213Z,92909.00
2023-03-30T03:03:16.352Z,92911.00
2023-03-30T03:04:16.239Z,92915.00
2023-03-30T03:05:16.309Z,92919.00
2023-03-30T03:06:16.262Z,92919.00
2023-03-30T03:07:16.275Z,92915.00
2023-03-30T03:08:16.314Z,92913.00
2023-03-30T03:09:16.318Z,92911.00
2023-03-30T03:10:16.336Z,92909.00
2023-03-30T03:11:16.356Z,92907.00
2023-03-30T03:12:16.377Z,92903.00
2023-03-30T03:13:16.397Z,92903.00
2023-03-30T03:14:16.415Z,92901.00
2023-03-30T03:15:16.443Z,92903.00
2023-03-30T03:16:16.477Z,92905.00
2023-03-30T03:17:16.530Z,92899.00
2023-03-30T03:18:16.479Z,92901.00
2023-03-30T03:19:16.505Z,92899.00
2023-03-30T03:20:16.533Z,92899.00
2023-03-30T03:21:16.555Z,92897.00
2023-03-30T03:22:16.570Z,92895.00
2023-03-30T03:23:16.588Z,92897.00
2023-03-30T03:24:16.606Z,92897.00
2023-03-30T03:25:16.660Z,92887.00
2023-03-30T03:26:16.646Z,92887.00
2023-03-30T03:27:16.657Z,92889.00
2023-03-30T03:28:16.670Z,92887.00
2023-03-30T03:29:16.689Z,92885.00
2023-03-30T03:30:16.710Z,92887.00
2023-03-30T03:31:16.753Z,92889.00
2023-03-30T03:32:16.740Z,92893.00
2023-03-30T03:33:16.754Z,92891.00
2023-03-30T03:34:16.771Z,92885.00
2023-03-30T03:35:16.789Z,92887.00
2023-03-30T03:36:16.852Z,92885.00
2023-03-30T03:37:16.812Z,92885.00
2023-03-30T03:38:16.832Z,92883.00
2023-03-30T03:39:16.845Z,92883.00
2023-03-30T03:40:16.866Z,92885.00
2023-03-30T03:41:16.873Z,92883.00
2023-03-30T03:42:16.895Z,92883.00
2023-03-30T03:43:16.904Z,92879.00
2023-03-30T03:44:16.912Z,92876.00
2023-03-30T03:45:16.939Z,92872.00
2023-03-30T03:46:16.982Z,92872.00
2023-03-30T03:47:16.954Z,92872.00
2023-03-30T03:48:16.970Z,92876.00
2023-03-30T03:49:17.071Z,92876.00
2023-03-30T03:50:17.008Z,92881.00
2023-03-30T03:51:17.020Z,92881.00
2023-03-30T03:52:17.041Z,92879.00
2023-03-30T03:53:17.072Z,92881.00
2023-03-30T03:54:17.140Z,92879.00
2023-03-30T03:55:17.095Z,92881.00
2023-03-30T03:56:17.090Z,92879.00
2023-03-30T03:57:17.136Z,92879.00
2023-03-30T03:58:17.186Z,92887.00
2023-03-30T03:59:17.133Z,92889.00
2023-03-30T04:00:17.184Z,92891.00
2023-03-30T04:01:17.172Z,92897.00
2023-03-30T04:02:17.226Z,92897.00
2023-03-30T04:03:17.223Z,92897.00
2023-03-30T04:04:17.274Z,92895.00
2023-03-30T04:05:17.237Z,92895.00
2023-03-30T04:06:17.240Z,92891.00
2023-03-30T04:07:17.247Z,92891.00
2023-03-30T04:08:17.260Z,92891.00
2023-03-30T04:09:17.275Z,92893.00
2023-03-30T04:10:17.290Z,92895.00
2023-03-30T04:11:17.295Z,92901.00
2023-03-30T04:12:17.308Z,92901.00
2023-03-30T04:13:17.320Z,92903.00
2023-03-30T04:14:17.331Z,92905.00
2023-03-30T04:15:17.326Z,92907.00
2023-03-30T04:16:17.388Z,92905.00
2023-03-30T04:17:17.370Z,92907.00
2023-03-30T04:18:17.362Z,92909.00
2023-03-30T04:19:17.374Z,92909.00
2023-03-30T04:20:17.399Z,92913.00
2023-03-30T04:21:17.407Z,92913.00
2023-03-30T04:22:17.418Z,92915.00
2023-03-30T04:23:17.441Z,92909.00
2023-03-30T04:24:17.448Z,92903.00
2023-03-30T04:25:17.464Z,92905.00
2023-03-30T04:26:17.538Z,92903.00
2023-03-30T04:27:17.497Z,92901.00
2023-03-30T04:28:17.522Z,92907.00
2023-03-30T04:29:17.513Z,92901.00
2023-03-30T04:30:17.528Z,92899.00
2023-03-30T04:31:17.586Z,92901.00
2023-03-30T04:32:17.552Z,92901.00
2023-03-30T04:33:17.582Z,92903.00
2023-03-30T04:34:17.592Z,92903.00
2023-03-30T04:35:17.612Z,92907.00
2023-03-30T04:36:17.678Z,92909.00
2023-03-30T04:37:17.657Z,92909.00
2023-03-30T04:38:17.671Z,92909.00
2023-03-30T04:39:17.694Z,92905.00
2023-03-30T04:40:17.698Z,92905.00
2023-03-30T04:41:17.712Z,92905.00
2023-03-30T04:42:17.738Z,92907.00
2023-03-30T04:43:17.749Z,92907.00
2023-03-30T04:44:17.769Z,92909.00
2023-03-30T04:45:17.789Z,92913.00
2023-03-30T04:46:17.841Z,92909.00
2023-03-30T04:47:17.825Z,92913.00
2023-03-30T04:48:17.858Z,92905.00
2023-03-30T04:49:17.860Z,92905.00
2023-03-30T04:50:17.892Z,92909.00
2023-03-30T04:51:17.931Z,92915.00
2023-03-30T04:52:18.077Z,92909.00
2023-03-30T04:53:17.945Z,92919.00
2023-03-30T04:54:17.964Z,92919.00
2023-03-30T04:55:18.004Z,92921.00
2023-03-30T04:56:18.025Z,92923.00
2023-03-30T04:57:18.107Z,92921.00
2023-03-30T04:58:18.063Z,92923.00
2023-03-30T04:59:18.081Z,92926.00
2023-03-30T05:00:18.150Z,92930.00
2023-03-30T05:01:18.146Z,92930.00
2023-03-30T05:02:18.166Z,92930.00
2023-03-30T05:03:19.540Z,92925.00
2023-03-30T05:04:18.126Z,92928.00
2023-03-30T05:05:18.083Z,92926.00
2023-03-30T05:06:18.035Z,92925.00
2023-03-30T05:07:17.992Z,92923.00
2023-03-30T05:08:17.950Z,92932.00
2023-03-30T05:09:17.924Z,92923.00
2023-03-30T05:10:17.870Z,92930.00
2023-03-30T05:11:18.700Z,92925.00
2023-03-30T05:12:17.778Z,92921.00
2023-03-30T05:13:17.749Z,92919.00
2023-03-30T05:14:17.702Z,92921.00
2023-03-30T05:15:17.645Z,92915.00
2023-03-30T05:16:17.625Z,92913.00
2023-03-30T05:17:17.628Z,92911.00
2023-03-30T05:18:17.524Z,92913.00
2023-03-30T05:19:17.484Z,92909.00
2023-03-30T05:20:17.434Z,92905.00
2023-03-30T05:21:17.392Z,92905.00
2023-03-30T05:22:17.356Z,92907.00
2023-03-30T05:23:17.317Z,92901.00
2023-03-30T05:24:17.282Z,92899.00
2023-03-30T05:25:17.260Z,92903.00
2023-03-30T05:26:17.751Z,92903.00
2023-03-30T05:27:17.204Z,92903.00
2023-03-30T05:28:17.233Z,92901.00
2023-03-30T05:29:17.154Z,92903.00
2023-03-30T05:30:17.116Z,92901.00
2023-03-30T05:31:18.138Z,92903.00
2023-03-30T05:32:17.228Z,92897.00
2023-03-30T05:33:17.018Z,92887.00
2023-03-30T05:34:16.983Z,92883.00
2023-03-30T05:35:16.957Z,92883.00
2023-03-30T05:36:17.051Z,92878.00
2023-03-30T05:37:16.872Z,92876.00
2023-03-30T05:38:18.714Z,92876.00
2023-03-30T05:39:16.790Z,92878.00
2023-03-30T05:40:16.751Z,92878.00
2023-03-30T05:41:18.239Z,92874.00
2023-03-30T05:42:16.666Z,92874.00
2023-03-30T05:43:16.623Z,92870.00
2023-03-30T05:44:16.768Z,92872.00
2023-03-30T05:45:16.669Z,92872.00
2023-03-30T05:46:16.716Z,92872.00
2023-03-30T05:47:16.702Z,92872.00
2023-03-30T05:48:16.716Z,92872.00
2023-03-30T05:49:16.736Z,92868.00
2023-03-30T05:50:16.744Z,92870.00
2023-03-30T05:51:16.765Z,92872.00
2023-03-30T05:52:16.787Z,92874.00
2023-03-30T05:53:16.803Z,92868.00
2023-03-30T05:54:16.811Z,92868.00
2023-03-30T05:55:16.863Z,92868.00
2023-03-30T05:56:16.850Z,92866.00
2023-03-30T05:57:16.952Z,92868.00
2023-03-30T05:58:16.891Z,92868.00
2023-03-30T05:59:16.908Z,92868.00
2023-03-30T06:00:16.899Z,92868.00
2023-03-30T06:01:16.882Z,92868.00
2023-03-30T06:02:17.740Z,92870.00
2023-03-30T06:03:16.918Z,92862.00
2023-03-30T06:04:16.965Z,92856.00
2023-03-30T06:05:16.816Z,92854.00
2023-03-30T06:06:16.767Z,92852.00
2023-03-30T06:07:16.712Z,92852.00
2023-03-30T06:08:16.685Z,92860.00
2023-03-30T06:09:16.645Z,92862.00
2023-03-30T06:10:16.626Z,92860.00
2023-03-30T06:11:16.555Z,92858.00
2023-03-30T06:12:16.532Z,92850.00
2023-03-30T06:13:17.243Z,92850.00
2023-03-30T06:14:16.457Z,92852.00
2023-03-30T06:15:16.421Z,92856.00
2023-03-30T06:16:16.386Z,92856.00
2023-03-30T06:17:16.335Z,92852.00
2023-03-30T06:18:16.349Z,92852.00
2023-03-30T06:19:16.326Z,92850.00
2023-03-30T06:20:16.348Z,92841.00
2023-03-30T06:21:17.233Z,92848.00
2023-03-30T06:22:21.259Z,92839.00
2023-03-30T06:23:16.352Z,92848.00
2023-03-30T06:24:16.310Z,92852.00
2023-03-30T06:25:17.279Z,92850.00
2023-03-30T06:26:17.248Z,92852.00
2023-03-30T06:27:16.185Z,92854.00
2023-03-30T06:28:16.140Z,92841.00
2023-03-30T06:29:16.085Z,92839.00
2023-03-30T06:30:16.042Z,92835.00
2023-03-30T06:31:16.006Z,92831.00
2023-03-30T06:32:16.017Z,92835.00
2023-03-30T06:33:15.907Z,92829.00
2023-03-30T06:34:16.866Z,92833.00
2023-03-30T06:35:15.863Z,92827.00
2023-03-30T06:36:15.818Z,92823.00
2023-03-30T06:37:15.716Z,92821.00
2023-03-30T06:38:15.670Z,92817.00
2023-03-30T06:39:15.620Z,92815.00
2023-03-30T06:40:15.630Z,92809.00
2023-03-30T06:41:15.537Z,92813.00
2023-03-30T06:42:15.488Z,92817.00
2023-03-30T06:43:15.545Z,92825.00
2023-03-30T06:44:15.515Z,92829.00
2023-03-30T06:45:15.544Z,92831.00
2023-03-30T06:46:15.552Z,92831.00
2023-03-30T06:47:15.686Z,92825.00
2023-03-30T06:48:15.567Z,92823.00
2023-03-30T06:49:15.582Z,92821.00
2023-03-30T06:50:15.582Z,92825.00
2023-03-30T06:51:15.613Z,92823.00
2023-03-30T06:52:15.616Z,92821.00
2023-03-30T06:53:15.593Z,92821.00
2023-03-30T06:54:15.515Z,92819.00
2023-03-30T06:55:15.492Z,92813.00
2023-03-30T06:56:15.424Z,92811.00
2023-03-30T06:57:15.462Z,92809.00
2023-03-30T06:58:15.320Z,92805.00
2023-03-30T06:59:15.266Z,92801.00
2023-03-30T07:00:15.288Z,92797.00
2023-03-30T07:01:15.274Z,92799.00
2023-03-30T07:02:15.149Z,92795.00
2023-03-30T07:03:15.091Z,92803.00
2023-03-30T07:04:15.775Z,92803.00
2023-03-30T07:05:15.199Z,92803.00
2023-03-30T07:06:15.134Z,92803.00
2023-03-30T07:07:15.072Z,92801.00
2023-03-30T07:08:15.016Z,92797.00
2023-03-30T07:09:14.978Z,92795.00
2023-03-30T07:10:14.938Z,92795.00
2023-03-30T07:11:14.934Z,92795.00
2023-03-30T07:12:14.831Z,92795.00
2023-03-30T07:13:14.799Z,92795.00
2023-03-30T07:14:14.733Z,92799.00
2023-03-30T07:15:14.722Z,92795.00
2023-03-30T07:16:14.756Z,92797.00
2023-03-30T07:17:14.771Z,92795.00
2023-03-30T07:18:14.712Z,92799.00
2023-03-30T07:19:14.616Z,92803.00
2023-03-30T07:20:14.585Z,92801.00
2023-03-30T07:21:14.534Z,92803.00
2023-03-30T07:22:14.495Z,92801.00
2023-03-30T07:23:14.444Z,92799.00
2023-03-30T07:24:14.399Z,92799.00
2023-03-30T07:25:14.360Z,92803.00
2023-03-30T07:26:14.387Z,92799.00
2023-03-30T07:27:14.275Z,92799.00
2023-03-30T07:28:14.222Z,92786.00
2023-03-30T07:29:14.186Z,92786.00
2023-03-30T07:30:21.703Z,92786.00
2023-03-30T07:31:15.116Z,92788.00
2023-03-30T07:32:14.797Z,92780.00
2023-03-30T07:33:14.069Z,92776.00
2023-03-30T07:34:13.974Z,92774.00
2023-03-30T07:35:13.921Z,92774.00
2023-03-30T07:36:13.902Z,92770.00
2023-03-30T07:37:16.100Z,92766.00
2023-03-30T07:38:14.795Z,92764.00
2023-03-30T07:39:13.760Z,92760.00
2023-03-30T07:40:13.752Z,92758.00
2023-03-30T07:41:13.680Z,92756.00
2023-03-30T07:42:13.661Z,92756.00
2023-03-30T07:43:13.634Z,92758.00
2023-03-30T07:44:13.581Z,92756.00
2023-03-30T07:45:16.072Z,92758.00
2023-03-30T07:46:13.530Z,92762.00
2023-03-30T07:47:13.434Z,92768.00
2023-03-30T07:48:13.432Z,92770.00
2023-03-30T07:49:13.354Z,92770.00
2023-03-30T07:50:13.286Z,92766.00
2023-03-30T07:51:13.286Z,92762.00
2023-03-30T07:52:13.186Z,92758.00
2023-03-30T07:53:13.133Z,92756.00
2023-03-30T07:54:13.112Z,92756.00
2023-03-30T07:55:13.042Z,92758.00
2023-03-30T07:56:13.010Z,92752.00
2023-03-30T07:57:13.012Z,92748.00
2023-03-30T07:58:12.990Z,92747.00
2023-03-30T07:59:12.834Z,92745.00
2023-03-30T08:00:12.791Z,92739.00
2023-03-30T08:01:12.742Z,92739.00
2023-03-30T08:02:12.698Z,92737.00
2023-03-30T08:03:12.786Z,92735.00
2023-03-30T08:04:12.653Z,92735.00
2023-03-30T08:05:12.735Z,92737.00
2023-03-30T08:06:12.499Z,92739.00
2023-03-30T08:07:12.476Z,92739.00
2023-03-30T08:08:12.415Z,92741.00
2023-03-30T08:09:12.361Z,92739.00
2023-03-30T08:10:12.324Z,92731.00
2023-03-30T08:11:12.275Z,92729.00
2023-03-30T08:12:12.245Z,92719.00
2023-03-30T08:13:12.202Z,92719.00
2023-03-30T08:14:12.162Z,92719.00
2023-03-30T08:15:12.158Z,92717.00
2023-03-30T08:16:12.162Z,92715.00
2023-03-30T08:17:12.051Z,92715.00
2023-03-30T08:18:12.069Z,92715.00
2023-03-30T08:19:11.952Z,92715.00
2023-03-30T08:20:11.925Z,92713.00
2023-03-30T08:21:11.889Z,92711.00
2023-03-30T08:22:12.794Z,92713.00
2023-03-30T08:23:11.781Z,92707.00
2023-03-30T08:24:11.747Z,92705.00
2023-03-30T08:25:11.700Z,92709.00
2023-03-30T08:26:11.643Z,92709.00
2023-03-30T08:27:11.620Z,92713.00
2023-03-30T08:28:11.560Z,92709.00
2023-03-30T08:29:11.511Z,92707.00
2023-03-30T08:30:11.462Z,92709.00
2023-03-30T08:31:11.428Z,92713.00
2023-03-30T08:32:11.357Z,92711.00
2023-03-30T08:33:11.327Z,92715.00
2023-03-30T08:34:11.252Z,92711.00
2023-03-30T08:35:11.219Z,92713.00
2023-03-30T08:36:11.155Z,92713.00
2023-03-30T08:37:11.105Z,92715.00
2023-03-30T08:38:11.134Z,92719.00
2023-03-30T08:39:11.106Z,92719.00
2023-03-30T08:40:11.801Z,92721.00
2023-03-30T08:41:11.106Z,92719.00
2023-03-30T08:42:11.133Z,92715.00
2023-03-30T08:43:11.126Z,92715.00
2023-03-30T08:44:11.128Z,92705.00
2023-03-30T08:45:11.166Z,92701.00
2023-03-30T08:46:11.198Z,92690.00
2023-03-30T08:47:11.185Z,92693.00
2023-03-30T08:48:11.212Z,92695.00
2023-03-30T08:49:11.198Z,92693.00
2023-03-30T08:50:11.215Z,92693.00
2023-03-30T08:51:11.279Z,92693.00
2023-03-30T08:52:11.264Z,92693.00
2023-03-30T08:53:11.264Z,92690.00
2023-03-30T08:54:11.264Z,92692.00
2023-03-30T08:55:11.257Z,92686.00
2023-03-30T08:56:11.263Z,92688.00
2023-03-30T08:57:11.326Z,92693.00
2023-03-30T08:58:11.312Z,92695.00
2023-03-30T08:59:11.288Z,92695.00
2023-03-30T09:00:11.277Z,92690.00
2023-03-30T09:01:11.340Z,92690.00
2023-03-30T09:02:11.381Z,92684.00
2023-03-30T09:03:11.329Z,92682.00
2023-03-30T09:04:11.316Z,92682.00
2023-03-30T09:05:11.359Z,92680.00
2023-03-30T09:06:11.337Z,92680.00
2023-03-30T09:07:11.324Z,92682.00
2023-03-30T09:08:11.327Z,92682.00
2023-03-30T09:09:11.346Z,92680.00
2023-03-30T09:10:11.372Z,92680.00
2023-03-30T09:11:11.368Z,92676.00
2023-03-30T09:12:11.862Z,92674.00
2023-03-30T09:13:11.381Z,92672.00
2023-03-30T09:14:11.400Z,92672.00
2023-03-30T09:15:11.421Z,92672.00
2023-03-30T09:16:11.518Z,92676.00
2023-03-30T09:17:11.462Z,92674.00
2023-03-30T09:18:11.556Z,92674.00
2023-03-30T09:19:11.447Z,92674.00
2023-03-30T09:20:11.481Z,92672.00
2023-03-30T09:21:11.447Z,92674.00
2023-03-30T09:22:11.510Z,92678.00
2023-03-30T09:23:11.445Z,92678.00
2023-03-30T09:24:12.238Z,92678.00
2023-03-30T09:25:11.471Z,92680.00
2023-03-30T09:26:11.494Z,92676.00
2023-03-30T09:27:11.493Z,92674.00
2023-03-30T09:28:11.503Z,92668.00
2023-03-30T09:29:11.509Z,92664.00
2023-03-30T09:30:11.511Z,92658.00
2023-03-30T09:31:11.600Z,92660.00
2023-03-30T09:32:11.615Z,92656.00
2023-03-30T09:33:11.567Z,92658.00
2023-03-30T09:34:13.620Z,92658.00
2023-03-30T09:35:11.504Z,92654.00
2023-03-30T09:36:11.527Z,92648.00
2023-03-30T09:37:11.404Z,92648.00
2023-03-30T09:38:11.367Z,92645.00
2023-03-30T09:39:11.307Z,92645.00
2023-03-30T09:40:11.749Z,92639.00
2023-03-30T09:41:11.244Z,92639.00
2023-03-30T09:42:11.229Z,92637.00
2023-03-30T09:43:11.139Z,92637.00
2023-03-30T09:44:11.073Z,92639.00
2023-03-30T09:45:11.035Z,92635.00
2023-03-30T09:46:11.063Z,92633.00
2023-03-30T09:47:10.931Z,92635.00
2023-03-30T09:48:10.911Z,92635.00
2023-03-30T09:49:10.844Z,92631.00
2023-03-30T09:50:10.803Z,92625.00
2023-03-30T09:51:10.767Z,92625.00
2023-03-30T09:52:10.743Z,92623.00
2023-03-30T09:53:10.683Z,92619.00
2023-03-30T09:54:10.613Z,92613.00
2023-03-30T09:55:10.568Z,92607.00
2023-03-30T09:56:10.528Z,92601.00
2023-03-30T09:57:10.520Z,92605.00
2023-03-30T09:58:10.437Z,92603.00
2023-03-30T09:59:10.379Z,92598.00
2023-03-30T10:00:10.342Z,92594.00
2023-03-30T10:01:10.303Z,92584.00
2023-03-30T10:02:10.815Z,92578.00
2023-03-30T10:03:10.241Z,92578.00
2023-03-30T10:04:10.373Z,92572.00
2023-03-30T10:05:10.105Z,92568.00
2023-03-30T10:06:10.080Z,92564.00
2023-03-30T10:07:18.606Z,92566.00
2023-03-30T10:08:10.949Z,92562.00
2023-03-30T10:09:09.917Z,92562.00
2023-03-30T10:10:09.876Z,92559.00
2023-03-30T10:11:09.825Z,92555.00
2023-03-30T10:12:09.783Z,92559.00
2023-03-30T10:13:09.752Z,92564.00
2023-03-30T10:14:09.743Z,92559.00
2023-03-30T10:15:09.744Z,92561.00
2023-03-30T10:16:09.660Z,92561.00
2023-03-30T10:17:09.572Z,92561.00
2023-03-30T10:18:09.617Z,92555.00
2023-03-30T10:19:09.480Z,92551.00
2023-03-30T10:20:14.076Z,92551.00
2023-03-30T10:21:10.433Z,92543.00
2023-03-30T10:22:09.381Z,92539.00
2023-03-30T10:23:09.455Z,92535.00
2023-03-30T10:24:09.230Z,92529.00
2023-03-30T10:25:10.362Z,92527.00
2023-03-30T10:26:09.136Z,92519.00
2023-03-30T10:27:09.071Z,92519.00
2023-03-30T10:28:09.019Z,92515.00
2023-03-30T10:29:08.972Z,92515.00
2023-03-30T10:30:08.988Z,92508.00
2023-03-30T10:31:09.038Z,92508.00
2023-03-30T10:32:09.010Z,92506.00
2023-03-30T10:33:09.043Z,92502.00
2023-03-30T10:34:09.022Z,92498.00
2023-03-30T10:35:09.098Z,92496.00
2023-03-30T10:36:09.048Z,92494.00
2023-03-30T10:37:09.043Z,92490.00
2023-03-30T10:38:09.054Z,92482.00
2023-03-30T10:39:09.081Z,92476.00
2023-03-30T10:40:09.052Z,92474.00
2023-03-30T10:41:09.066Z,92468.00
2023-03-30T10:42:09.073Z,92468.00
2023-03-30T10:43:09.098Z,92468.00
2023-03-30T10:44:09.080Z,92468.00
2023-03-30T10:45:09.072Z,92474.00
2023-03-30T10:46:18.878Z,92472.00
2023-03-30T10:47:10.074Z,92476.00
2023-03-30T10:48:09.010Z,92476.00
2023-03-30T10:49:08.922Z,92472.00
2023-03-30T10:50:08.873Z,92468.00
2023-03-30T10:51:08.824Z,92464.00
2023-03-30T10:52:08.774Z,92459.00
2023-03-30T10:53:08.723Z,92459.00
2023-03-30T10:54:08.748Z,92455.00
2023-03-30T10:55:08.641Z,92457.00
2023-03-30T10:56:09.359Z,92455.00
2023-03-30T10:57:08.696Z,92451.00
2023-03-30T10:58:08.631Z,92449.00
2023-03-30T10:59:08.633Z,92443.00
2023-03-30T11:00:08.672Z,92443.00
2023-03-30T11:01:08.679Z,92441.00
2023-03-30T11:02:08.635Z,92437.00
2023-03-30T11:03:08.697Z,92435.00
2023-03-30T11:04:20.371Z,92431.00
2023-03-30T11:05:09.557Z,92425.00
2023-03-30T11:06:08.508Z,92425.00
2023-03-30T11:07:08.490Z,92421.00
2023-03-30T11:08:08.440Z,92417.00
2023-03-30T11:09:08.420Z,92417.00
2023-03-30T11:10:08.361Z,92412.00
2023-03-30T11:11:08.334Z,92413.00
2023-03-30T11:12:08.296Z,92413.00
2023-03-30T11:13:08.266Z,92413.00
2023-03-30T11:14:08.192Z,92412.00
2023-03-30T11:15:08.175Z,92413.00
2023-03-30T11:16:08.464Z,92410.00
2023-03-30T11:17:08.111Z,92410.00
2023-03-30T11:18:08.156Z,92410.00
2023-03-30T11:19:08.140Z,92412.00
2023-03-30T11:20:08.022Z,92413.00
2023-03-30T11:21:08.093Z,92410.00
2023-03-30T11:22:08.133Z,92404.00
2023-03-30T11:23:08.075Z,92404.00
2023-03-30T11:24:08.099Z,92402.00
2023-03-30T11:25:08.096Z,92402.00
2023-03-30T11:26:08.197Z,92400.00
2023-03-30T11:27:08.104Z,92396.00
2023-03-30T11:28:08.113Z,92392.00
2023-03-30T11:29:08.133Z,92392.00
2023-03-30T11:30:08.157Z,92388.00
2023-03-30T11:31:08.145Z,92386.00
2023-03-30T11:32:08.198Z,92384.00
2023-03-30T11:33:08.213Z,92378.00
2023-03-30T11:34:08.210Z,92380.00
2023-03-30T11:35:08.163Z,92376.00
2023-03-30T11:36:08.638Z,92374.00
2023-03-30T11:37:08.170Z,92372.00
2023-03-30T11:38:08.175Z,92378.00
2023-03-30T11:39:09.318Z,92372.00
2023-03-30T11:40:09.111Z,92374.00
2023-03-30T11:41:08.071Z,92370.00
2023-03-30T11:42:08.063Z,92370.00
2023-03-30T11:43:07.974Z,92368.00
2023-03-30T11:44:07.939Z,92366.00